Time;durP1;ratioP1;P1;durP2;ratioP2;P2;SDS_P1;SDS_P2;PMS_P1;PMS_P2;Temp;Humidity;BMP_temperature;BMP_pressure;BME280_temperature;BME280_humidity;BME280_pressure;Samples;Min_cycle;Max_cycle;Signal;HPM_P1;HPM_P2
2023/05/01 00:01:45;;;;;;;10.10;4.97;;;;;;;0.41;100.00;96884.25;10495891;28;20237;-66
2023/05/01 00:06:46;;;;;;;8.77;4.53;;;;;;;0.43;100.00;96884.16;10495859;28;20216;-64
2023/05/01 00:11:46;;;;;;;10.30;6.60;;;;;;;0.35;100.00;96888.03;10495697;28;20237;-65
2023/05/01 00:16:46;;;;;;;8.33;5.40;;;;;;;0.39;100.00;96878.38;10495522;28;20193;-66
2023/05/01 00:21:47;;;;;;;10.27;5.97;;;;;;;0.38;100.00;96874.13;10495282;28;20211;-65
2023/05/01 00:26:47;;;;;;;12.63;6.77;;;;;;;0.35;100.00;96871.72;10495295;28;20194;-64
2023/05/01 00:31:48;;;;;;;13.57;6.67;;;;;;;0.44;100.00;96871.19;10476771;28;20312;-64
2023/05/01 00:36:48;;;;;;;13.40;6.70;;;;;;;0.43;100.00;96845.50;10494860;28;20230;-64
2023/05/01 00:41:48;;;;;;;16.07;6.77;;;;;;;0.44;100.00;96854.91;10494565;28;20258;-65
2023/05/01 00:46:49;;;;;;;8.13;5.73;;;;;;;0.58;100.00;96846.34;10476693;28;20200;-65
2023/05/01 00:51:52;;;;;;;13.47;6.20;;;;;;;0.51;100.00;96835.59;10493699;28;20255;-65
2023/05/01 00:56:52;;;;;;;12.00;8.13;;;;;;;0.52;100.00;96842.38;10494365;28;20581;-64
2023/05/01 01:01:53;;;;;;;17.73;8.00;;;;;;;0.57;100.00;96827.47;10494000;28;20230;-63
2023/05/01 01:07:00;;;;;;;13.53;6.90;;;;;;;0.53;100.00;96821.66;10476352;28;20211;-65
2023/05/01 01:12:25;;;;;;;13.40;7.47;;;;;;;0.55;100.00;96824.16;10476101;28;20347;-64
2023/05/01 01:17:42;;;;;;;12.90;6.93;;;;;;;0.53;100.00;96808.78;10493879;28;20237;-66
2023/05/01 01:22:47;;;;;;;15.93;8.33;;;;;;;0.48;100.00;96810.81;10475789;28;20259;-64
2023/05/01 01:28:21;;;;;;;11.17;6.73;;;;;;;0.47;100.00;96804.00;10475952;28;20737;-64
2023/05/01 01:33:47;;;;;;;12.40;7.00;;;;;;;0.53;100.00;96797.66;10493582;28;20231;-64
2023/05/01 01:39:09;;;;;;;16.27;6.70;;;;;;;0.49;100.00;96796.16;10493801;28;20199;-64
2023/05/01 01:44:20;;;;;;;14.60;6.70;;;;;;;0.34;100.00;96782.47;10475560;28;20236;-65
2023/05/01 01:49:25;;;;;;;12.47;6.67;;;;;;;0.34;100.00;96777.31;10475557;28;20219;-65
2023/05/01 01:54:30;;;;;;;16.57;7.00;;;;;;;0.22;100.00;96773.72;10475169;28;20237;-64
2023/05/01 01:59:32;;;;;;;17.93;7.70;;;;;;;0.10;100.00;96771.88;10458473;28;20256;-65
2023/05/01 02:04:35;;;;;;;12.57;7.03;;;;;;;0.03;100.00;96770.56;10482917;28;20654;-64
2023/05/01 02:09:36;;;;;;;14.20;6.63;;;;;;;-0.11;100.00;96772.19;10482512;28;20227;-64
2023/05/01 02:14:37;;;;;;;16.53;7.73;;;;;;;-0.30;100.00;96774.19;10465923;28;20179;-64
2023/05/01 02:19:39;;;;;;;12.93;6.63;;;;;;;-0.38;100.00;96765.16;10465934;28;20658;-65
2023/05/01 02:24:41;;;;;;;11.20;6.37;;;;;;;-0.48;100.00;96764.00;10465619;28;20198;-64
2023/05/01 02:29:41;;;;;;;12.17;6.80;;;;;;;-0.57;100.00;96761.94;10481992;28;20591;-64
2023/05/01 02:34:42;;;;;;;14.00;6.53;;;;;;;-0.69;100.00;96754.91;10499822;28;20188;-62
2023/05/01 02:39:42;;;;;;;16.47;8.53;;;;;;;-0.81;100.00;96762.41;10499385;28;20212;-64
2023/05/01 02:44:52;;;;;;;15.47;7.47;;;;;;;-0.71;100.00;96755.00;10499425;28;20195;-65
2023/05/01 02:49:53;;;;;;;14.90;7.73;;;;;;;-0.78;100.00;96751.97;10469563;28;20723;-64
2023/05/01 02:54:54;;;;;;;13.17;6.37;;;;;;;-0.76;100.00;96751.88;10439643;28;20282;-64
2023/05/01 02:59:55;;;;;;;15.03;7.47;;;;;;;-0.83;100.00;96743.66;10439045;28;20231;-64
2023/05/01 03:04:55;;;;;;;16.33;7.43;;;;;;;-0.91;100.00;96738.94;10482648;28;20203;-64
2023/05/01 03:09:56;;;;;;;13.20;7.33;;;;;;;-0.96;100.00;96734.97;10498366;28;20640;-64
2023/05/01 03:14:56;;;;;;;18.03;6.73;;;;;;;-0.97;100.00;96730.75;10479465;28;20562;-64
2023/05/01 03:19:56;;;;;;;11.90;7.70;;;;;;;-1.07;100.00;96730.44;10498013;28;20207;-64
2023/05/01 03:24:58;;;;;;;13.73;7.60;;;;;;;-1.02;100.00;96736.13;10497611;28;20195;-64
2023/05/01 03:29:58;;;;;;;11.03;7.03;;;;;;;-1.02;100.00;96731.00;10497454;28;20253;-64
2023/05/01 03:34:59;;;;;;;14.07;7.73;;;;;;;-1.08;100.00;96739.88;10479470;28;20629;-65
2023/05/01 03:39:59;;;;;;;16.17;8.90;;;;;;;-1.01;100.00;96724.94;10478948;28;20590;-64
2023/05/01 03:45:19;;;;;;;14.67;8.70;;;;;;;-1.00;100.00;96731.72;10496932;28;20191;-64
2023/05/01 03:50:19;;;;;;;18.67;9.03;;;;;;;-0.98;100.00;96727.34;10478713;28;20843;-65
2023/05/01 03:55:22;;;;;;;11.23;7.13;;;;;;;-1.03;100.00;96720.78;10478544;28;20187;-64
2023/05/01 04:00:24;;;;;;;10.43;7.00;;;;;;;-0.92;100.00;96723.59;10477952;28;20322;-65
2023/05/01 04:05:24;;;;;;;13.50;7.50;;;;;;;-0.87;100.00;96715.63;10461387;28;20287;-64
2023/05/01 04:10:27;;;;;;;16.80;7.50;;;;;;;-0.86;100.00;96715.53;10477483;28;20579;-65
2023/05/01 04:15:32;;;;;;;11.87;6.97;;;;;;;-0.78;100.00;96713.38;10477917;28;20194;-64
2023/05/01 04:20:33;;;;;;;19.40;8.10;;;;;;;-0.69;100.00;96704.28;10477549;28;20242;-64
2023/05/01 04:25:35;;;;;;;17.07;7.60;;;;;;;-0.56;100.00;96700.09;10476399;28;20230;-65
2023/05/01 04:30:41;;;;;;;13.90;7.57;;;;;;;-0.48;100.00;96698.84;10477171;28;20230;-65
2023/05/01 04:35:42;;;;;;;15.03;8.73;;;;;;;-0.24;100.00;96694.03;10476983;28;20198;-65
2023/05/01 04:40:43;;;;;;;17.10;7.53;;;;;;;-0.15;100.00;96688.34;10476681;28;20262;-64
2023/05/01 04:45:43;;;;;;;15.10;7.97;;;;;;;0.02;100.00;96689.91;10476819;28;20284;-65
2023/05/01 04:50:44;;;;;;;15.00;7.37;;;;;;;0.29;100.00;96687.41;10476313;28;20715;-64
2023/05/01 04:55:44;;;;;;;12.90;6.57;;;;;;;0.59;100.00;96677.88;10494469;28;20182;-64
2023/05/01 05:00:48;;;;;;;12.63;6.70;;;;;;;0.68;100.00;96682.47;10428213;23;20244;-58
2023/05/01 05:05:54;;;;;;;14.03;7.30;;;;;;;0.90;100.00;96684.50;10430109;28;20252;-60
2023/05/01 05:10:56;;;;;;;14.47;7.30;;;;;;;1.13;100.00;96680.47;10405889;28;21015;-60
2023/05/01 05:16:04;;;;;;;10.03;6.33;;;;;;;1.55;100.00;96681.19;10409804;28;20283;-61
2023/05/01 05:21:05;;;;;;;18.07;8.00;;;;;;;1.73;100.00;96671.38;10393291;28;20211;-60
2023/05/01 05:26:06;;;;;;;16.63;7.93;;;;;;;2.10;100.00;96668.91;10409875;28;20615;-58
2023/05/01 05:31:06;;;;;;;10.13;7.33;;;;;;;2.59;100.00;96653.47;10409215;28;20224;-61
2023/05/01 05:36:06;;;;;;;14.17;7.23;;;;;;;3.14;100.00;96646.09;10414404;28;20207;-61
2023/05/01 05:41:12;;;;;;;21.07;8.13;;;;;;;3.59;100.00;96645.44;10417684;28;20319;-61
2023/05/01 05:46:13;;;;;;;11.80;7.67;;;;;;;4.22;100.00;96633.69;10417686;28;20283;-61
2023/05/01 05:51:15;;;;;;;14.70;8.20;;;;;;;4.99;100.00;96619.00;10400773;28;20217;-61
2023/05/01 05:56:16;;;;;;;15.17;8.17;;;;;;;5.89;100.00;96618.50;10418446;28;20215;-61
2023/05/01 06:01:16;;;;;;;16.83;7.83;;;;;;;6.61;100.00;96602.88;10416991;28;20315;-62
2023/05/01 06:06:16;;;;;;;12.23;7.03;;;;;;;7.52;98.53;96576.56;10416989;28;20666;-61
2023/05/01 06:11:17;;;;;;;14.73;8.37;;;;;;;7.99;91.60;96547.00;10400059;28;20308;-62
2023/05/01 06:16:17;;;;;;;22.43;9.43;;;;;;;8.71;87.35;96536.72;10417760;28;20989;-62
2023/05/01 06:21:18;;;;;;;12.87;7.10;;;;;;;8.62;86.36;96532.41;10399641;28;20690;-62
2023/05/01 06:26:18;;;;;;;8.80;5.57;;;;;;;9.84;71.76;96402.63;10416123;28;20277;-62
2023/05/01 06:31:19;;;;;;;9.80;4.57;;;;;;;10.00;66.11;96377.31;10415471;28;20592;-62
2023/05/01 06:36:24;;;;;;;10.73;4.30;;;;;;;11.35;58.86;96295.59;10415822;28;20208;-62
2023/05/01 06:41:25;;;;;;;6.95;3.90;;;;;;;11.95;53.83;96232.91;10416571;28;20236;-61
2023/05/01 06:46:26;;;;;;;6.25;3.45;;;;;;;12.31;54.29;96280.38;10414406;28;20188;-63
2023/05/01 06:51:26;;;;;;;6.45;3.90;;;;;;;12.61;49.29;96192.88;10416035;28;20303;-62
2023/05/01 06:56:27;;;;;;;8.85;3.85;;;;;;;12.62;48.60;96184.81;10416071;28;20188;-63
2023/05/01 07:01:28;;;;;;;7.53;3.47;;;;;;;13.03;47.93;96191.34;10415743;28;20281;-61
2023/05/01 07:06:28;;;;;;;4.45;3.30;;;;;;;13.30;46.77;96181.13;10415634;28;20570;-62
2023/05/01 07:11:29;;;;;;;9.32;3.78;;;;;;;12.92;47.32;96190.03;10415548;28;20227;-62
2023/05/01 07:16:29;;;;;;;5.50;3.40;;;;;;;13.60;47.20;96210.00;10415384;28;20254;-62
2023/05/01 07:21:31;;;;;;;7.43;3.58;;;;;;;12.98;46.85;96205.06;10414992;28;20212;-62
2023/05/01 07:26:31;;;;;;;8.68;3.70;;;;;;;13.07;46.48;96184.75;10415166;28;20601;-62
2023/05/01 07:31:31;;;;;;;4.78;3.42;;;;;;;13.41;45.71;96182.50;10414521;28;20224;-63
2023/05/01 07:36:32;;;;;;;8.55;3.53;;;;;;;14.48;45.85;96220.22;10414804;28;20235;-60
2023/05/01 07:41:33;;;;;;;5.50;3.70;;;;;;;13.32;46.19;96201.00;10413962;28;20204;-61
2023/05/01 07:46:35;;;;;;;5.85;3.45;;;;;;;12.75;48.33;96233.28;10414529;28;20212;-63
2023/05/01 07:51:36;;;;;;;7.47;4.30;;;;;;;12.88;47.56;96225.59;10413672;28;20718;-62
2023/05/01 07:56:36;;;;;;;4.30;2.70;;;;;;;13.02;46.16;96184.50;10413664;28;20197;-62
2023/05/01 08:01:37;;;;;;;11.30;4.32;;;;;;;13.63;48.08;96254.34;10413606;28;20271;-63
2023/05/01 08:06:37;;;;;;;6.72;4.00;;;;;;;13.24;46.04;96200.31;10413594;28;20543;-63
2023/05/01 08:11:37;;;;;;;10.60;4.60;;;;;;;12.94;47.88;96218.75;10413158;28;20228;-63
2023/05/01 08:16:38;;;;;;;11.70;4.68;;;;;;;13.79;46.06;96206.75;10412955;28;20200;-62
2023/05/01 08:21:38;;;;;;;8.68;4.22;;;;;;;14.65;46.65;96250.56;10413007;28;20204;-63
2023/05/01 08:26:38;;;;;;;8.15;4.60;;;;;;;14.19;44.38;96180.72;10412941;28;20281;-64
2023/05/01 08:31:41;;;;;;;8.93;4.35;;;;;;;15.93;43.88;96217.56;10412344;28;20216;-64
2023/05/01 08:36:41;;;;;;;8.05;5.03;;;;;;;15.57;42.94;96184.34;10412242;28;20222;-63
2023/05/01 08:41:46;;;;;;;6.95;4.07;;;;;;;14.19;47.91;96272.09;10412148;28;20204;-64
2023/05/01 08:46:47;;;;;;;9.65;4.20;;;;;;;14.66;45.55;96239.03;10412051;28;20192;-62
2023/05/01 08:51:49;;;;;;;9.32;4.63;;;;;;;14.31;47.19;96264.50;10411394;28;20278;-61
2023/05/01 08:56:50;;;;;;;8.65;4.90;;;;;;;14.06;47.41;96249.91;10410346;28;20196;-63
2023/05/01 09:01:51;;;;;;;9.50;4.72;;;;;;;15.28;45.81;96253.13;10410246;28;20251;-64
2023/05/01 09:06:53;;;;;;;7.65;4.25;;;;;;;15.35;45.16;96253.16;10409580;28;20717;-64
2023/05/01 09:12:08;;;;;;;6.35;4.13;;;;;;;14.22;44.81;96196.13;10392808;28;20311;-63
2023/05/01 09:17:09;;;;;;;7.18;4.10;;;;;;;14.72;44.45;96200.53;10409745;28;20259;-64
2023/05/01 09:22:09;;;;;;;8.75;4.50;;;;;;;14.45;47.35;96255.69;10392836;28;20961;-63
2023/05/01 09:27:12;;;;;;;11.10;4.95;;;;;;;14.34;46.87;96235.13;10410596;28;20647;-63
2023/05/01 09:32:16;;;;;;;11.90;4.63;;;;;;;15.62;44.67;96226.81;10410226;28;20220;-64
2023/05/01 09:37:26;;;;;;;9.15;4.30;;;;;;;15.10;44.05;96182.44;10410339;28;20205;-64
2023/05/01 09:42:26;;;;;;;8.65;3.80;;;;;;;14.85;45.37;96205.84;10409896;28;20208;-62
2023/05/01 09:47:28;;;;;;;9.05;4.32;;;;;;;14.51;46.47;96219.84;10410406;28;20193;-63
2023/05/01 09:52:29;;;;;;;7.38;4.40;;;;;;;14.45;46.69;96218.78;10409770;28;20208;-63
2023/05/01 09:57:37;;;;;;;11.93;4.32;;;;;;;14.60;45.94;96195.78;10409856;28;20193;-62
2023/05/01 10:02:38;;;;;;;8.95;4.18;;;;;;;15.74;44.05;96185.59;10409791;28;20243;-63
2023/05/01 10:07:39;;;;;;;8.60;3.90;;;;;;;16.32;44.64;96216.72;10409346;28;20192;-64
2023/05/01 10:12:40;;;;;;;8.15;4.55;;;;;;;16.14;42.85;96148.63;10409411;28;20368;-64
2023/05/01 10:17:42;;;;;;;8.30;4.32;;;;;;;16.74;43.14;96174.13;10409314;28;20699;-65
2023/05/01 10:22:43;;;;;;;7.45;4.30;;;;;;;17.22;41.15;96127.94;10412930;28;20204;-65
2023/05/01 10:27:43;;;;;;;10.27;3.83;;;;;;;17.56;41.39;96144.41;10416765;28;20636;-66
2023/05/01 10:32:44;;;;;;;7.60;3.83;;;;;;;15.97;42.76;96123.66;10415478;28;20200;-65
2023/05/01 10:37:55;;;;;;;6.45;3.90;;;;;;;16.69;42.34;96144.84;10406625;28;20196;-64
2023/05/01 10:43:17;;;;;;;4.72;3.47;;;;;;;17.60;41.65;96138.47;10413335;28;20915;-65
2023/05/01 10:48:36;;;;;;;7.47;3.58;;;;;;;16.64;42.40;96116.38;10413095;28;20216;-63
2023/05/01 10:53:37;;;;;;;5.95;3.30;;;;;;;16.23;43.76;96134.19;10411702;28;20216;-62
2023/05/01 10:58:38;;;;;;;6.65;3.47;;;;;;;16.22;42.25;96081.53;10412680;28;20300;-62
2023/05/01 11:03:39;;;;;;;5.60;3.60;;;;;;;18.22;42.76;96163.47;10505106;23;20729;-66
2023/05/01 11:08:39;;;;;;;6.85;3.97;;;;;;;15.93;41.55;96044.00;10496328;28;20206;-65
2023/05/01 11:13:58;;;;;;;7.18;3.25;;;;;;;16.87;41.85;96072.75;10474357;28;20246;-65
2023/05/01 11:18:58;;;;;;;6.82;3.72;;;;;;;16.26;42.91;96080.09;10474116;28;20203;-65
2023/05/01 11:23:59;;;;;;;6.82;3.42;;;;;;;16.88;41.63;96066.44;10474385;28;20209;-66
2023/05/01 11:29:00;;;;;;;6.95;3.40;;;;;;;17.28;41.07;96061.69;10474866;28;20195;-65
2023/05/01 11:34:01;;;;;;;5.95;3.10;;;;;;;17.41;42.61;96105.00;10489435;28;20223;-65
2023/05/01 11:39:01;;;;;;;8.70;3.25;;;;;;;18.18;39.96;96055.22;10496730;28;20244;-67
2023/05/01 11:44:01;;;;;;;6.20;3.25;;;;;;;19.10;37.65;95997.72;10496236;28;20229;-68
2023/05/01 11:49:02;;;;;;;8.57;3.20;;;;;;;20.63;37.64;96035.91;10496459;28;20244;-68
2023/05/01 11:54:06;;;;;;;7.93;3.00;;;;;;;19.37;39.33;96047.75;10496452;28;20595;-66
2023/05/01 11:59:15;;;;;;;3.92;2.78;;;;;;;20.01;39.27;96039.94;10496329;28;20199;-67
2023/05/01 12:04:23;;;;;;;7.57;3.08;;;;;;;20.26;35.16;95909.38;10496088;28;20242;-67
2023/05/01 12:09:25;;;;;;;4.38;3.05;;;;;;;19.18;38.56;95968.19;10487455;28;20191;-67
2023/05/01 12:14:26;;;;;;;6.35;3.33;;;;;;;21.37;37.63;96003.09;10454580;28;20188;-66
2023/05/01 12:19:26;;;;;;;5.03;2.92;;;;;;;22.08;36.05;95973.19;10487579;28;20187;-67
2023/05/01 12:24:26;;;;;;;6.78;3.00;;;;;;;22.02;35.97;95955.50;10495369;28;20219;-66
2023/05/01 12:29:39;;;;;;;6.90;3.30;;;;;;;22.89;34.27;95947.66;10495563;28;20198;-68
2023/05/01 12:34:40;;;;;;;8.07;2.83;;;;;;;20.54;36.48;95914.91;10495494;28;20219;-67
2023/05/01 12:39:41;;;;;;;4.97;2.10;;;;;;;20.22;35.03;95847.03;10493738;28;20207;-67
2023/05/01 12:44:42;;;;;;;4.97;2.05;;;;;;;20.78;36.06;95894.28;10452651;28;20257;-67
2023/05/01 12:49:42;;;;;;;3.72;2.13;;;;;;;20.11;38.99;95956.94;10453221;28;20693;-66
2023/05/01 12:54:43;;;;;;;5.10;2.38;;;;;;;19.58;36.76;95886.97;10453128;28;20195;-66
2023/05/01 12:59:44;;;;;;;3.50;2.30;;;;;;;18.49;37.63;95862.47;10472193;28;20685;-67
2023/05/01 13:04:49;;;;;;;7.07;2.60;;;;;;;20.90;35.45;95887.03;10468509;28;20545;-66
2023/05/01 13:09:57;;;;;;;5.70;2.22;;;;;;;21.10;37.16;95947.81;10452326;28;20216;-66
2023/05/01 13:14:58;;;;;;;5.35;2.05;;;;;;;21.08;35.15;95874.53;10452551;28;20199;-67
2023/05/01 13:20:03;;;;;;;5.32;2.40;;;;;;;19.74;36.91;95888.09;10464038;28;20203;-66
2023/05/01 13:25:13;;;;;;;2.67;2.00;;;;;;;19.30;35.83;95838.06;10469550;28;20246;-66
2023/05/01 13:30:13;;;;;;;3.38;1.80;;;;;;;19.12;36.39;95839.00;10457144;28;20273;-66
2023/05/01 13:35:24;;;;;;;4.10;1.65;;;;;;;19.56;35.75;95841.25;10476922;28;20247;-67
2023/05/01 13:40:25;;;;;;;3.38;1.60;;;;;;;18.09;37.08;95828.59;10493139;28;20199;-65
2023/05/01 13:45:25;;;;;;;3.00;1.67;;;;;;;18.27;38.57;95882.56;10475266;28;20192;-66
2023/05/01 13:50:26;;;;;;;5.05;2.55;;;;;;;18.82;37.63;95878.88;10491818;28;20235;-68
2023/05/01 13:55:26;;;;;;;4.35;1.88;;;;;;;19.41;36.31;95863.78;10494734;28;20238;-67
2023/05/01 14:00:27;;;;;;;8.05;2.63;;;;;;;18.35;37.80;95871.66;10496881;28;20247;-66
2023/05/01 14:05:27;;;;;;;3.38;1.90;;;;;;;19.15;37.87;95890.84;10506529;28;20195;-66
2023/05/01 14:10:28;;;;;;;6.10;2.08;;;;;;;19.59;36.81;95870.00;10542698;28;20229;-67
2023/05/01 14:15:28;;;;;;;4.35;2.42;;;;;;;20.86;35.75;95880.59;10525648;28;20722;-66
2023/05/01 14:20:29;;;;;;;6.43;2.85;;;;;;;19.26;38.16;95887.38;10498744;28;20225;-67
2023/05/01 14:25:33;;;;;;;8.15;2.60;;;;;;;18.57;39.05;95889.69;10462986;28;20224;-66
2023/05/01 14:30:38;;;;;;;7.15;2.75;;;;;;;18.68;38.95;95880.94;10468934;28;20211;-66
2023/05/01 14:35:48;;;;;;;6.10;2.38;;;;;;;20.00;37.35;95894.78;10462107;28;20257;-67
2023/05/01 14:40:48;;;;;;;6.10;2.75;;;;;;;19.70;39.00;95906.38;10457911;28;20215;-67
2023/05/01 14:45:49;;;;;;;5.13;2.58;;;;;;;19.00;39.06;95889.44;10457705;28;20286;-67
2023/05/01 14:50:50;;;;;;;5.18;2.83;;;;;;;17.85;42.27;95931.00;10440090;28;20354;-66
2023/05/01 14:55:50;;;;;;;6.03;2.53;;;;;;;17.86;42.30;95934.47;10439525;28;20187;-67
2023/05/01 15:00:51;;;;;;;4.05;2.60;;;;;;;17.08;44.12;95945.41;10457376;28;20236;-67
2023/05/01 15:05:52;;;;;;;5.13;2.95;;;;;;;16.53;44.12;95922.16;10469280;28;20324;-66
2023/05/01 15:10:52;;;;;;;5.05;2.88;;;;;;;16.63;45.73;95971.97;10497581;28;20671;-66
2023/05/01 15:15:53;;;;;;;6.07;3.75;;;;;;;16.05;46.52;95980.78;10498388;28;20195;-66
2023/05/01 15:20:54;;;;;;;6.97;4.40;;;;;;;16.01;46.84;95988.28;10496563;28;20569;-66
2023/05/01 15:25:54;;;;;;;5.38;3.05;;;;;;;15.80;47.42;95992.03;10497449;28;20565;-67
2023/05/01 15:30:55;;;;;;;6.70;3.47;;;;;;;15.74;47.50;95990.16;10497159;28;20238;-67
2023/05/01 15:35:55;;;;;;;9.82;3.45;;;;;;;15.89;48.15;96012.94;10497480;28;20195;-67
2023/05/01 15:40:55;;;;;;;8.48;3.10;;;;;;;15.64;48.28;96003.00;10496225;28;20304;-67
2023/05/01 15:45:58;;;;;;;5.38;2.83;;;;;;;16.13;48.23;96014.09;10495816;28;20200;-67
2023/05/01 15:50:58;;;;;;;21.05;11.27;;;;;;;16.08;47.91;96005.94;10494660;28;20721;-67
2023/05/01 15:55:58;;;;;;;6.70;4.30;;;;;;;16.02;48.22;96005.78;10495496;28;20191;-66
2023/05/01 16:00:59;;;;;;;6.28;3.28;;;;;;;16.12;48.54;96017.72;10495903;28;20237;-67
2023/05/01 16:05:59;;;;;;;5.03;3.13;;;;;;;16.14;48.13;95997.19;10493399;28;20219;-67
2023/05/01 16:10:59;;;;;;;4.45;2.83;;;;;;;15.99;48.44;96011.47;10493469;28;20219;-66
2023/05/01 16:16:00;;;;;;;7.80;2.90;;;;;;;15.90;49.02;96019.84;10495542;28;20731;-67
2023/05/01 16:21:01;;;;;;;6.90;3.50;;;;;;;15.92;48.67;96010.69;10493050;28;20215;-66
2023/05/01 16:26:01;;;;;;;5.97;3.80;;;;;;;16.05;49.45;96026.50;10494169;28;20574;-67
2023/05/01 16:31:02;;;;;;;7.88;4.13;;;;;;;15.89;50.36;96039.34;10491375;28;20234;-66
2023/05/01 16:36:02;;;;;;;7.32;4.18;;;;;;;15.91;51.17;96053.16;10489800;28;20207;-66
2023/05/01 16:41:02;;;;;;;5.95;4.43;;;;;;;15.54;53.04;96069.41;10491916;28;20203;-67
2023/05/01 16:46:03;;;;;;;6.63;2.83;;;;;;;15.79;54.21;96096.03;10489855;28;20768;-67
2023/05/01 16:51:05;;;;;;;6.38;2.90;;;;;;;15.34;55.14;96101.91;10488227;28;20215;-67
2023/05/01 16:56:07;;;;;;;3.28;2.55;;;;;;;15.53;56.71;96128.50;10491146;28;20660;-66
2023/05/01 17:01:08;;;;;;;6.47;3.20;;;;;;;15.60;59.60;96179.47;10511710;23;20316;-65
2023/05/01 17:06:08;;;;;;;9.65;3.88;;;;;;;15.58;59.33;96152.47;10491425;28;20272;-66
2023/05/01 17:11:09;;;;;;;9.93;3.83;;;;;;;15.61;63.37;96194.31;10493992;28;20727;-65
2023/05/01 17:16:10;;;;;;;8.35;4.25;;;;;;;14.84;60.79;96126.94;10496856;28;20600;-67
2023/05/01 17:21:10;;;;;;;9.02;3.85;;;;;;;15.23;65.73;96200.13;10495756;28;20203;-65
2023/05/01 17:26:14;;;;;;;8.82;4.60;;;;;;;15.13;67.49;96186.47;10493198;28;20214;-63
2023/05/01 17:31:15;;;;;;;8.18;4.03;;;;;;;15.00;68.64;96171.44;10496375;28;20732;-64
2023/05/01 17:36:15;;;;;;;6.18;4.00;;;;;;;14.72;68.93;96150.44;10501948;28;20187;-64
2023/05/01 17:41:16;;;;;;;10.38;7.57;;;;;;;14.45;66.68;96110.72;10501524;28;20237;-64
2023/05/01 17:46:17;;;;;;;7.10;5.40;;;;;;;13.96;71.42;96170.41;10501952;28;20186;-64
2023/05/01 17:51:17;;;;;;;10.48;4.50;;;;;;;13.19;72.48;96164.84;10500904;28;20309;-64
2023/05/01 17:56:17;;;;;;;13.45;7.40;;;;;;;13.38;74.49;96179.25;10501337;28;20194;-64
2023/05/01 18:01:18;;;;;;;14.27;7.10;;;;;;;13.03;76.61;96186.09;10500555;28;20296;-64
2023/05/01 18:06:18;;;;;;;9.82;6.25;;;;;;;12.87;77.10;96171.38;10500648;28;20199;-64
2023/05/01 18:11:19;;;;;;;13.48;7.78;;;;;;;12.38;79.20;96188.53;10500572;28;20219;-64
2023/05/01 18:16:19;;;;;;;9.55;4.13;;;;;;;12.51;78.82;96180.03;10500229;28;20191;-65
2023/05/01 18:21:20;;;;;;;6.30;4.22;;;;;;;12.49;78.63;96172.28;10500391;28;20843;-65
2023/05/01 18:26:20;;;;;;;6.43;3.60;;;;;;;12.38;79.74;96179.84;10499703;28;20327;-66
2023/05/01 18:31:20;;;;;;;5.88;3.70;;;;;;;12.28;81.12;96185.34;10499736;28;20223;-64
2023/05/01 18:36:21;;;;;;;6.95;3.67;;;;;;;12.11;81.85;96188.16;10499942;28;20195;-64
2023/05/01 18:41:21;;;;;;;4.68;3.35;;;;;;;12.17;81.61;96185.78;10498053;28;20257;-64
2023/05/01 18:46:21;;;;;;;6.60;3.35;;;;;;;11.99;82.49;96200.09;10499914;28;20191;-64
2023/05/01 18:51:22;;;;;;;6.35;3.58;;;;;;;11.81;82.38;96196.91;10498928;28;20708;-64
2023/05/01 18:56:23;;;;;;;4.40;3.40;;;;;;;11.71;83.64;96191.91;10499402;28;20708;-64
2023/05/01 19:01:24;;;;;;;6.25;3.65;;;;;;;11.68;83.64;96203.56;10498730;28;20658;-64
2023/05/01 19:06:25;;;;;;;8.63;4.15;;;;;;;11.59;84.54;96212.47;10498714;28;20740;-63
2023/05/01 19:11:29;;;;;;;9.10;3.67;;;;;;;11.39;84.90;96210.34;10498579;28;20227;-63
2023/05/01 19:16:29;;;;;;;9.73;4.20;;;;;;;11.38;86.08;96221.00;10498149;28;20942;-63
2023/05/01 19:21:30;;;;;;;7.10;3.75;;;;;;;11.38;86.19;96227.06;10498301;28;20234;-64
2023/05/01 19:26:31;;;;;;;5.85;3.50;;;;;;;11.30;86.65;96221.88;10497982;28;20345;-65
2023/05/01 19:31:31;;;;;;;5.47;3.63;;;;;;;11.19;87.50;96223.09;10497420;28;20223;-64
2023/05/01 19:36:32;;;;;;;5.32;3.60;;;;;;;11.12;88.68;96237.03;10497734;28;20646;-65
2023/05/01 19:41:32;;;;;;;5.53;3.65;;;;;;;11.06;88.71;96225.44;10497089;28;20249;-64
2023/05/01 19:46:32;;;;;;;7.50;3.90;;;;;;;11.06;88.95;96226.25;10497322;28;20219;-65
2023/05/01 19:51:33;;;;;;;8.03;4.30;;;;;;;10.82;91.31;96235.03;10496883;28;20238;-64
2023/05/01 19:56:33;;;;;;;8.53;3.97;;;;;;;10.78;95.39;96246.84;10496561;28;20205;-65
2023/05/01 20:01:33;;;;;;;8.80;4.47;;;;;;;10.63;98.28;96253.78;10496133;28;20222;-65
2023/05/01 20:06:34;;;;;;;12.00;4.63;;;;;;;10.53;100.00;96246.09;10496548;28;20187;-64
2023/05/01 20:11:34;;;;;;;7.43;4.23;;;;;;;10.46;100.00;96242.50;10495869;28;20766;-65
2023/05/01 20:16:35;;;;;;;8.70;4.10;;;;;;;10.49;100.00;96242.16;10496073;28;20191;-63
2023/05/01 20:21:35;;;;;;;6.17;4.07;;;;;;;10.48;100.00;96254.44;10495482;28;20222;-64
2023/05/01 20:26:36;;;;;;;7.50;4.50;;;;;;;10.78;98.47;96261.75;10495548;28;20218;-64
2023/05/01 20:31:36;;;;;;;11.25;5.70;;;;;;;11.12;94.34;96250.97;10494998;28;20483;-62
2023/05/01 20:36:37;;;;;;;11.77;7.50;;;;;;;11.26;90.07;96252.03;10495213;28;20199;-64
2023/05/01 20:41:37;;;;;;;12.27;6.95;;;;;;;11.24;91.21;96270.56;10494967;28;20269;-64
2023/05/01 20:46:38;;;;;;;13.70;8.20;;;;;;;11.05;94.32;96277.03;10493655;28;20195;-64
2023/05/01 20:51:38;;;;;;;11.73;8.57;;;;;;;11.14;95.71;96290.13;10471249;28;20219;-63
2023/05/01 20:56:38;;;;;;;13.70;8.25;;;;;;;10.98;96.04;96294.44;10473533;28;20199;-64
2023/05/01 21:01:39;;;;;;;13.50;7.90;;;;;;;11.00;97.45;96302.94;10472847;28;20235;-63
2023/05/01 21:06:39;;;;;;;12.73;8.57;;;;;;;10.87;98.19;96294.78;10471578;28;20326;-65
2023/05/01 21:11:40;;;;;;;11.77;8.97;;;;;;;10.83;98.24;96307.41;10455735;28;20741;-65
2023/05/01 21:16:40;;;;;;;12.43;8.07;;;;;;;10.68;99.57;96324.81;10452839;28;20527;-65
2023/05/01 21:21:40;;;;;;;11.63;7.90;;;;;;;10.56;100.00;96345.28;10434224;28;20656;-65
2023/05/01 21:26:41;;;;;;;16.43;8.73;;;;;;;10.29;100.00;96355.09;10452936;28;20603;-65
2023/05/01 21:31:41;;;;;;;13.93;9.03;;;;;;;10.18;100.00;96365.88;10452448;28;20578;-64
2023/05/01 21:36:43;;;;;;;15.57;9.10;;;;;;;9.91;100.00;96362.59;10452173;28;20551;-64
2023/05/01 21:41:47;;;;;;;14.20;9.83;;;;;;;9.65;100.00;96357.47;10452280;28;20286;-63
2023/05/01 21:46:47;;;;;;;13.83;9.23;;;;;;;9.60;100.00;96360.56;10451803;28;20196;-64
2023/05/01 21:51:47;;;;;;;12.70;9.47;;;;;;;9.53;100.00;96354.31;10451898;28;20258;-65
2023/05/01 21:56:48;;;;;;;14.77;9.57;;;;;;;9.51;100.00;96350.22;10451667;28;20195;-65
2023/05/01 22:01:48;;;;;;;16.30;10.00;;;;;;;9.43;100.00;96361.47;10451602;28;20228;-65
2023/05/01 22:06:49;;;;;;;16.47;9.90;;;;;;;9.41;100.00;96355.59;10451725;28;20196;-65
2023/05/01 22:11:49;;;;;;;14.87;9.60;;;;;;;9.34;100.00;96355.41;10451182;28;20270;-65
2023/05/01 22:16:50;;;;;;;16.13;10.73;;;;;;;9.11;100.00;96355.13;10454127;28;20554;-65
2023/05/01 22:21:51;;;;;;;13.33;9.67;;;;;;;9.24;100.00;96357.31;10479305;28;20203;-65
2023/05/01 22:26:51;;;;;;;17.77;10.93;;;;;;;9.07;100.00;96353.81;10500599;28;20196;-65
2023/05/01 22:31:51;;;;;;;14.63;9.70;;;;;;;9.15;100.00;96355.63;10499964;28;20222;-65
2023/05/01 22:36:52;;;;;;;11.83;9.80;;;;;;;9.15;100.00;96351.22;10499890;28;20219;-65
2023/05/01 22:41:52;;;;;;;14.00;9.70;;;;;;;9.18;100.00;96352.72;10499653;28;20211;-65
2023/05/01 22:46:52;;;;;;;14.30;10.10;;;;;;;9.24;100.00;96362.53;10499286;28;20252;-65
2023/05/01 22:51:54;;;;;;;15.17;10.57;;;;;;;9.31;100.00;96362.72;10499421;28;20338;-65
2023/05/01 22:56:55;;;;;;;15.97;10.00;;;;;;;9.40;100.00;96369.63;10499283;28;20774;-64
2023/05/01 23:01:55;;;;;;;12.90;10.10;;;;;;;9.48;100.00;96356.59;10498859;28;20245;-65
2023/05/01 23:06:56;;;;;;;21.03;10.40;;;;;;;9.40;100.00;96359.16;10498879;28;20194;-65
2023/05/01 23:11:56;;;;;;;13.07;9.43;;;;;;;9.50;100.00;96351.22;10498427;28;20241;-64